sensor_id;sensor_type;location;lat;lon;timestamp;P1;durP1;ratioP1;P2;durP2;ratioP2
11313;SDS011;5712;48.858;9.206;2024-01-06T00:00:28;5.63;;;3.50;;
11313;SDS011;5712;48.858;9.206;2024-01-06T00:02:55;7.43;;;3.57;;
11313;SDS011;5712;48.858;9.206;2024-01-06T00:05:21;7.23;;;3.23;;
11313;SDS011;5712;48.858;9.206;2024-01-06T00:07:47;3.97;;;3.00;;
11313;SDS011;5712;48.858;9.206;2024-01-06T00:10:14;6.73;;;2.47;;
11313;SDS011;5712;48.858;9.206;2024-01-06T00:12:41;3.50;;;2.30;;
11313;SDS011;5712;48.858;9.206;2024-01-06T00:15:09;5.60;;;2.77;;
11313;SDS011;5712;48.858;9.206;2024-01-06T00:17:35;4.07;;;2.20;;
11313;SDS011;5712;48.858;9.206;2024-01-06T00:20:02;4.50;;;2.80;;
11313;SDS011;5712;48.858;9.206;2024-01-06T00:22:29;3.37;;;2.47;;
11313;SDS011;5712;48.858;9.206;2024-01-06T00:24:57;5.33;;;2.70;;
11313;SDS011;5712;48.858;9.206;2024-01-06T00:27:24;3.70;;;2.90;;
11313;SDS011;5712;48.858;9.206;2024-01-06T00:29:51;4.93;;;2.47;;
11313;SDS011;5712;48.858;9.206;2024-01-06T00:32:19;4.90;;;2.70;;
11313;SDS011;5712;48.858;9.206;2024-01-06T00:34:45;5.03;;;2.20;;
11313;SDS011;5712;48.858;9.206;2024-01-06T00:37:12;5.17;;;2.53;;
11313;SDS011;5712;48.858;9.206;2024-01-06T00:39:39;3.67;;;2.47;;
11313;SDS011;5712;48.858;9.206;2024-01-06T00:42:05;4.80;;;2.67;;
11313;SDS011;5712;48.858;9.206;2024-01-06T00:44:32;7.30;;;3.27;;
11313;SDS011;5712;48.858;9.206;2024-01-06T00:47:00;3.80;;;2.90;;
11313;SDS011;5712;48.858;9.206;2024-01-06T00:49:28;5.03;;;2.83;;
11313;SDS011;5712;48.858;9.206;2024-01-06T00:51:54;3.30;;;2.40;;
11313;SDS011;5712;48.858;9.206;2024-01-06T00:54:20;2.90;;;2.13;;
11313;SDS011;5712;48.858;9.206;2024-01-06T00:56:47;4.70;;;2.40;;
11313;SDS011;5712;48.858;9.206;2024-01-06T00:59:13;3.93;;;2.70;;
11313;SDS011;5712;48.858;9.206;2024-01-06T01:01:40;4.43;;;3.00;;
11313;SDS011;5712;48.858;9.206;2024-01-06T01:04:06;5.40;;;2.63;;
11313;SDS011;5712;48.858;9.206;2024-01-06T01:06:34;3.23;;;2.43;;
11313;SDS011;5712;48.858;9.206;2024-01-06T01:09:02;3.53;;;2.50;;
11313;SDS011;5712;48.858;9.206;2024-01-06T01:11:29;4.23;;;3.03;;
11313;SDS011;5712;48.858;9.206;2024-01-06T01:13:56;8.23;;;3.80;;
11313;SDS011;5712;48.858;9.206;2024-01-06T01:16:22;9.20;;;4.27;;
11313;SDS011;5712;48.858;9.206;2024-01-06T01:18:49;10.63;;;5.73;;
11313;SDS011;5712;48.858;9.206;2024-01-06T01:21:16;8.77;;;5.30;;
11313;SDS011;5712;48.858;9.206;2024-01-06T01:23:44;7.40;;;3.57;;
11313;SDS011;5712;48.858;9.206;2024-01-06T01:26:10;3.73;;;2.63;;
11313;SDS011;5712;48.858;9.206;2024-01-06T01:28:37;4.50;;;2.23;;
11313;SDS011;5712;48.858;9.206;2024-01-06T01:31:03;3.40;;;2.03;;
11313;SDS011;5712;48.858;9.206;2024-01-06T01:33:30;4.17;;;1.87;;
11313;SDS011;5712;48.858;9.206;2024-01-06T01:35:56;1.73;;;1.37;;
11313;SDS011;5712;48.858;9.206;2024-01-06T01:38:23;2.90;;;1.20;;
11313;SDS011;5712;48.858;9.206;2024-01-06T01:40:51;2.83;;;1.43;;
11313;SDS011;5712;48.858;9.206;2024-01-06T01:43:17;4.57;;;1.40;;
11313;SDS011;5712;48.858;9.206;2024-01-06T01:45:45;1.40;;;1.30;;
11313;SDS011;5712;48.858;9.206;2024-01-06T01:48:14;2.73;;;1.40;;
11313;SDS011;5712;48.858;9.206;2024-01-06T01:50:40;2.27;;;1.57;;
11313;SDS011;5712;48.858;9.206;2024-01-06T01:53:07;2.27;;;1.20;;
11313;SDS011;5712;48.858;9.206;2024-01-06T01:55:33;2.23;;;1.20;;
11313;SDS011;5712;48.858;9.206;2024-01-06T01:58:01;3.27;;;1.60;;
11313;SDS011;5712;48.858;9.206;2024-01-06T02:00:28;2.50;;;1.03;;
11313;SDS011;5712;48.858;9.206;2024-01-06T02:02:55;2.33;;;1.23;;
11313;SDS011;5712;48.858;9.206;2024-01-06T02:05:22;0.90;;;0.90;;
11313;SDS011;5712;48.858;9.206;2024-01-06T02:07:49;3.40;;;1.30;;
11313;SDS011;5712;48.858;9.206;2024-01-06T02:10:16;1.77;;;1.30;;
11313;SDS011;5712;48.858;9.206;2024-01-06T02:12:43;1.20;;;0.80;;
11313;SDS011;5712;48.858;9.206;2024-01-06T02:15:11;1.50;;;1.00;;
11313;SDS011;5712;48.858;9.206;2024-01-06T02:17:38;4.37;;;1.37;;
11313;SDS011;5712;48.858;9.206;2024-01-06T02:20:05;3.67;;;1.50;;
11313;SDS011;5712;48.858;9.206;2024-01-06T02:22:34;3.60;;;1.43;;
11313;SDS011;5712;48.858;9.206;2024-01-06T02:25:01;2.47;;;1.20;;
11313;SDS011;5712;48.858;9.206;2024-01-06T02:27:32;2.20;;;1.10;;
11313;SDS011;5712;48.858;9.206;2024-01-06T02:29:58;2.53;;;1.20;;
11313;SDS011;5712;48.858;9.206;2024-01-06T02:32:26;1.47;;;0.90;;
11313;SDS011;5712;48.858;9.206;2024-01-06T02:34:52;1.10;;;1.00;;
11313;SDS011;5712;48.858;9.206;2024-01-06T02:37:19;2.43;;;1.13;;
11313;SDS011;5712;48.858;9.206;2024-01-06T02:39:46;3.00;;;1.70;;
11313;SDS011;5712;48.858;9.206;2024-01-06T02:42:13;3.60;;;1.23;;
11313;SDS011;5712;48.858;9.206;2024-01-06T02:44:39;3.37;;;1.20;;
11313;SDS011;5712;48.858;9.206;2024-01-06T02:47:06;2.60;;;1.13;;
11313;SDS011;5712;48.858;9.206;2024-01-06T02:49:32;4.03;;;1.50;;
11313;SDS011;5712;48.858;9.206;2024-01-06T02:51:59;2.97;;;1.33;;
11313;SDS011;5712;48.858;9.206;2024-01-06T02:54:25;3.13;;;1.47;;
11313;SDS011;5712;48.858;9.206;2024-01-06T02:56:53;3.73;;;1.50;;
11313;SDS011;5712;48.858;9.206;2024-01-06T02:59:20;2.37;;;1.27;;
11313;SDS011;5712;48.858;9.206;2024-01-06T03:01:46;1.53;;;1.23;;
11313;SDS011;5712;48.858;9.206;2024-01-06T03:04:13;3.07;;;1.30;;
11313;SDS011;5712;48.858;9.206;2024-01-06T03:06:39;2.57;;;1.50;;
11313;SDS011;5712;48.858;9.206;2024-01-06T03:09:05;3.27;;;1.50;;
11313;SDS011;5712;48.858;9.206;2024-01-06T03:11:32;3.23;;;1.10;;
11313;SDS011;5712;48.858;9.206;2024-01-06T03:14:00;3.90;;;1.03;;
11313;SDS011;5712;48.858;9.206;2024-01-06T03:16:28;4.97;;;1.30;;
11313;SDS011;5712;48.858;9.206;2024-01-06T03:18:55;2.70;;;1.10;;
11313;SDS011;5712;48.858;9.206;2024-01-06T03:21:21;3.63;;;1.33;;
11313;SDS011;5712;48.858;9.206;2024-01-06T03:23:48;3.90;;;1.10;;
11313;SDS011;5712;48.858;9.206;2024-01-06T03:26:14;2.87;;;1.50;;
11313;SDS011;5712;48.858;9.206;2024-01-06T03:28:41;3.87;;;1.43;;
11313;SDS011;5712;48.858;9.206;2024-01-06T03:31:09;4.47;;;1.20;;
11313;SDS011;5712;48.858;9.206;2024-01-06T03:33:35;2.93;;;1.30;;
11313;SDS011;5712;48.858;9.206;2024-01-06T03:36:04;5.17;;;1.60;;
11313;SDS011;5712;48.858;9.206;2024-01-06T03:38:31;1.97;;;1.07;;
11313;SDS011;5712;48.858;9.206;2024-01-06T03:40:58;6.70;;;1.07;;
11313;SDS011;5712;48.858;9.206;2024-01-06T03:43:24;4.03;;;1.57;;
11313;SDS011;5712;48.858;9.206;2024-01-06T03:45:51;6.10;;;1.37;;
11313;SDS011;5712;48.858;9.206;2024-01-06T03:48:19;2.07;;;1.07;;
11313;SDS011;5712;48.858;9.206;2024-01-06T03:50:45;2.57;;;1.40;;
11313;SDS011;5712;48.858;9.206;2024-01-06T03:53:11;5.33;;;1.60;;
11313;SDS011;5712;48.858;9.206;2024-01-06T03:55:38;3.20;;;1.37;;
11313;SDS011;5712;48.858;9.206;2024-01-06T03:58:04;2.10;;;1.20;;
11313;SDS011;5712;48.858;9.206;2024-01-06T04:00:31;2.93;;;1.20;;
11313;SDS011;5712;48.858;9.206;2024-01-06T04:02:57;3.60;;;0.90;;
11313;SDS011;5712;48.858;9.206;2024-01-06T04:05:25;1.50;;;1.20;;
11313;SDS011;5712;48.858;9.206;2024-01-06T04:07:52;4.23;;;1.43;;
11313;SDS011;5712;48.858;9.206;2024-01-06T04:10:18;2.73;;;1.00;;
11313;SDS011;5712;48.858;9.206;2024-01-06T04:12:45;4.10;;;1.63;;
11313;SDS011;5712;48.858;9.206;2024-01-06T04:15:11;1.77;;;1.00;;
11313;SDS011;5712;48.858;9.206;2024-01-06T04:17:38;2.33;;;1.33;;
11313;SDS011;5712;48.858;9.206;2024-01-06T04:20:04;1.33;;;1.00;;
11313;SDS011;5712;48.858;9.206;2024-01-06T04:22:33;6.47;;;1.40;;
11313;SDS011;5712;48.858;9.206;2024-01-06T04:24:59;2.67;;;1.20;;
11313;SDS011;5712;48.858;9.206;2024-01-06T04:27:26;2.93;;;1.37;;
11313;SDS011;5712;48.858;9.206;2024-01-06T04:29:52;3.13;;;1.10;;
11313;SDS011;5712;48.858;9.206;2024-01-06T04:32:19;1.60;;;1.10;;
11313;SDS011;5712;48.858;9.206;2024-01-06T04:34:45;3.33;;;1.20;;
11313;SDS011;5712;48.858;9.206;2024-01-06T04:37:12;4.57;;;1.23;;
11313;SDS011;5712;48.858;9.206;2024-01-06T04:39:39;2.27;;;1.37;;
11313;SDS011;5712;48.858;9.206;2024-01-06T04:42:06;1.70;;;1.30;;
11313;SDS011;5712;48.858;9.206;2024-01-06T04:44:32;3.43;;;1.40;;
11313;SDS011;5712;48.858;9.206;2024-01-06T04:46:59;2.10;;;1.47;;
11313;SDS011;5712;48.858;9.206;2024-01-06T04:49:25;2.50;;;1.53;;
11313;SDS011;5712;48.858;9.206;2024-01-06T04:51:52;2.40;;;1.60;;
11313;SDS011;5712;48.858;9.206;2024-01-06T04:54:19;3.17;;;1.50;;
11313;SDS011;5712;48.858;9.206;2024-01-06T04:56:46;4.20;;;1.80;;
11313;SDS011;5712;48.858;9.206;2024-01-06T04:59:13;4.53;;;1.73;;
11313;SDS011;5712;48.858;9.206;2024-01-06T05:01:39;1.77;;;1.40;;
11313;SDS011;5712;48.858;9.206;2024-01-06T05:04:06;3.97;;;1.23;;
11313;SDS011;5712;48.858;9.206;2024-01-06T05:06:32;2.70;;;1.50;;
11313;SDS011;5712;48.858;9.206;2024-01-06T05:08:59;4.10;;;1.57;;
11313;SDS011;5712;48.858;9.206;2024-01-06T05:11:25;3.57;;;1.47;;
11313;SDS011;5712;48.858;9.206;2024-01-06T05:13:53;3.83;;;1.60;;
11313;SDS011;5712;48.858;9.206;2024-01-06T05:16:19;2.23;;;1.60;;
11313;SDS011;5712;48.858;9.206;2024-01-06T05:18:46;1.97;;;1.33;;
11313;SDS011;5712;48.858;9.206;2024-01-06T05:21:12;2.23;;;1.47;;
11313;SDS011;5712;48.858;9.206;2024-01-06T05:23:39;3.93;;;1.60;;
11313;SDS011;5712;48.858;9.206;2024-01-06T05:26:06;2.47;;;1.60;;
11313;SDS011;5712;48.858;9.206;2024-01-06T05:28:32;3.77;;;1.63;;
11313;SDS011;5712;48.858;9.206;2024-01-06T05:31:00;2.33;;;1.30;;
11313;SDS011;5712;48.858;9.206;2024-01-06T05:33:26;4.07;;;1.70;;
11313;SDS011;5712;48.858;9.206;2024-01-06T05:35:53;2.10;;;1.60;;
11313;SDS011;5712;48.858;9.206;2024-01-06T05:38:19;2.13;;;1.30;;
11313;SDS011;5712;48.858;9.206;2024-01-06T05:40:46;2.10;;;1.40;;
11313;SDS011;5712;48.858;9.206;2024-01-06T05:43:13;1.40;;;1.30;;
11313;SDS011;5712;48.858;9.206;2024-01-06T05:45:39;3.23;;;1.60;;
11313;SDS011;5712;48.858;9.206;2024-01-06T05:48:09;2.23;;;1.60;;
11313;SDS011;5712;48.858;9.206;2024-01-06T05:50:36;2.57;;;1.43;;
11313;SDS011;5712;48.858;9.206;2024-01-06T05:53:02;4.13;;;1.43;;
11313;SDS011;5712;48.858;9.206;2024-01-06T05:55:29;2.60;;;1.47;;
11313;SDS011;5712;48.858;9.206;2024-01-06T05:57:56;3.17;;;1.80;;
11313;SDS011;5712;48.858;9.206;2024-01-06T06:00:22;2.57;;;1.60;;
11313;SDS011;5712;48.858;9.206;2024-01-06T06:02:48;3.00;;;2.00;;
11313;SDS011;5712;48.858;9.206;2024-01-06T06:05:16;2.80;;;2.00;;
11313;SDS011;5712;48.858;9.206;2024-01-06T06:07:43;2.33;;;1.63;;
11313;SDS011;5712;48.858;9.206;2024-01-06T06:10:10;5.00;;;2.00;;
11313;SDS011;5712;48.858;9.206;2024-01-06T06:12:37;3.73;;;2.27;;
11313;SDS011;5712;48.858;9.206;2024-01-06T06:15:04;3.50;;;1.77;;
11313;SDS011;5712;48.858;9.206;2024-01-06T06:17:32;4.10;;;2.03;;
11313;SDS011;5712;48.858;9.206;2024-01-06T06:19:59;3.83;;;1.53;;
11313;SDS011;5712;48.858;9.206;2024-01-06T06:22:27;3.17;;;1.83;;
11313;SDS011;5712;48.858;9.206;2024-01-06T06:24:55;3.83;;;1.50;;
11313;SDS011;5712;48.858;9.206;2024-01-06T06:27:22;4.47;;;1.80;;
11313;SDS011;5712;48.858;9.206;2024-01-06T06:29:49;8.10;;;2.00;;
11313;SDS011;5712;48.858;9.206;2024-01-06T06:32:15;4.60;;;1.87;;
11313;SDS011;5712;48.858;9.206;2024-01-06T06:34:41;3.33;;;1.90;;
11313;SDS011;5712;48.858;9.206;2024-01-06T06:37:08;2.83;;;1.60;;
11313;SDS011;5712;48.858;9.206;2024-01-06T06:39:36;3.13;;;1.60;;
11313;SDS011;5712;48.858;9.206;2024-01-06T06:42:03;2.67;;;1.83;;
11313;SDS011;5712;48.858;9.206;2024-01-06T06:44:30;4.30;;;1.70;;
11313;SDS011;5712;48.858;9.206;2024-01-06T06:46:56;4.60;;;2.27;;
11313;SDS011;5712;48.858;9.206;2024-01-06T06:49:23;3.50;;;2.50;;
11313;SDS011;5712;48.858;9.206;2024-01-06T06:51:49;2.90;;;1.90;;
11313;SDS011;5712;48.858;9.206;2024-01-06T06:54:16;3.50;;;2.30;;
11313;SDS011;5712;48.858;9.206;2024-01-06T06:56:44;5.17;;;2.20;;
11313;SDS011;5712;48.858;9.206;2024-01-06T06:59:11;4.90;;;1.97;;
11313;SDS011;5712;48.858;9.206;2024-01-06T07:01:37;4.77;;;1.97;;
11313;SDS011;5712;48.858;9.206;2024-01-06T07:04:04;2.80;;;2.03;;
11313;SDS011;5712;48.858;9.206;2024-01-06T07:06:30;6.43;;;2.83;;
11313;SDS011;5712;48.858;9.206;2024-01-06T07:08:57;3.43;;;1.80;;
11313;SDS011;5712;48.858;9.206;2024-01-06T07:11:24;4.43;;;2.10;;
11313;SDS011;5712;48.858;9.206;2024-01-06T07:13:52;3.97;;;1.80;;
11313;SDS011;5712;48.858;9.206;2024-01-06T07:16:19;2.30;;;2.07;;
11313;SDS011;5712;48.858;9.206;2024-01-06T07:18:46;4.20;;;1.80;;
11313;SDS011;5712;48.858;9.206;2024-01-06T07:21:12;2.03;;;1.83;;
11313;SDS011;5712;48.858;9.206;2024-01-06T07:23:39;4.50;;;1.97;;
11313;SDS011;5712;48.858;9.206;2024-01-06T07:26:06;2.30;;;1.73;;
11313;SDS011;5712;48.858;9.206;2024-01-06T07:28:33;1.77;;;1.57;;
11313;SDS011;5712;48.858;9.206;2024-01-06T07:31:01;2.70;;;2.03;;
11313;SDS011;5712;48.858;9.206;2024-01-06T07:33:27;2.40;;;1.80;;
11313;SDS011;5712;48.858;9.206;2024-01-06T07:35:54;3.63;;;2.10;;
11313;SDS011;5712;48.858;9.206;2024-01-06T07:38:21;5.20;;;2.10;;
11313;SDS011;5712;48.858;9.206;2024-01-06T07:40:47;2.30;;;1.67;;
11313;SDS011;5712;48.858;9.206;2024-01-06T07:43:14;2.07;;;1.77;;
11313;SDS011;5712;48.858;9.206;2024-01-06T07:45:41;2.13;;;1.90;;
11313;SDS011;5712;48.858;9.206;2024-01-06T07:48:09;2.63;;;1.83;;
11313;SDS011;5712;48.858;9.206;2024-01-06T07:50:35;2.27;;;1.67;;
11313;SDS011;5712;48.858;9.206;2024-01-06T07:53:02;2.97;;;1.80;;
11313;SDS011;5712;48.858;9.206;2024-01-06T07:55:28;1.97;;;1.60;;
11313;SDS011;5712;48.858;9.206;2024-01-06T07:57:55;3.43;;;1.90;;
11313;SDS011;5712;48.858;9.206;2024-01-06T08:00:21;2.17;;;1.77;;
11313;SDS011;5712;48.858;9.206;2024-01-06T08:02:48;3.47;;;1.87;;
11313;SDS011;5712;48.858;9.206;2024-01-06T08:05:15;2.10;;;1.77;;
11313;SDS011;5712;48.858;9.206;2024-01-06T08:07:42;4.40;;;2.00;;
11313;SDS011;5712;48.858;9.206;2024-01-06T08:10:08;2.07;;;1.87;;
11313;SDS011;5712;48.858;9.206;2024-01-06T08:12:35;2.03;;;1.70;;
11313;SDS011;5712;48.858;9.206;2024-01-06T08:15:02;2.53;;;2.13;;
11313;SDS011;5712;48.858;9.206;2024-01-06T08:17:29;3.27;;;1.87;;
11313;SDS011;5712;48.858;9.206;2024-01-06T08:19:56;2.33;;;1.90;;
11313;SDS011;5712;48.858;9.206;2024-01-06T08:22:24;1.93;;;1.80;;
11313;SDS011;5712;48.858;9.206;2024-01-06T08:24:50;2.87;;;1.80;;
11313;SDS011;5712;48.858;9.206;2024-01-06T08:27:17;2.00;;;1.80;;
11313;SDS011;5712;48.858;9.206;2024-01-06T08:29:44;1.90;;;1.60;;
11313;SDS011;5712;48.858;9.206;2024-01-06T08:32:10;2.27;;;1.80;;
11313;SDS011;5712;48.858;9.206;2024-01-06T08:34:38;2.28;;;1.92;;
11313;SDS011;5712;48.858;9.206;2024-01-06T08:37:04;2.10;;;1.70;;
11313;SDS011;5712;48.858;9.206;2024-01-06T08:39:32;4.57;;;2.40;;
11313;SDS011;5712;48.858;9.206;2024-01-06T08:41:58;2.47;;;1.50;;
11313;SDS011;5712;48.858;9.206;2024-01-06T08:44:25;6.93;;;1.93;;
11313;SDS011;5712;48.858;9.206;2024-01-06T08:46:51;2.63;;;1.80;;
11313;SDS011;5712;48.858;9.206;2024-01-06T08:49:18;4.77;;;1.73;;
11313;SDS011;5712;48.858;9.206;2024-01-06T08:51:44;2.90;;;1.90;;
11313;SDS011;5712;48.858;9.206;2024-01-06T08:54:11;2.77;;;2.03;;
11313;SDS011;5712;48.858;9.206;2024-01-06T08:56:39;3.67;;;2.10;;
11313;SDS011;5712;48.858;9.206;2024-01-06T08:59:06;3.63;;;2.37;;
11313;SDS011;5712;48.858;9.206;2024-01-06T09:01:32;3.60;;;2.33;;
11313;SDS011;5712;48.858;9.206;2024-01-06T09:04:01;3.50;;;2.30;;
11313;SDS011;5712;48.858;9.206;2024-01-06T09:06:27;2.50;;;2.30;;
11313;SDS011;5712;48.858;9.206;2024-01-06T09:08:54;2.27;;;2.07;;
11313;SDS011;5712;48.858;9.206;2024-01-06T09:11:20;3.03;;;2.43;;
11313;SDS011;5712;48.858;9.206;2024-01-06T09:13:48;2.60;;;1.83;;
11313;SDS011;5712;48.858;9.206;2024-01-06T09:16:17;1.70;;;1.60;;
11313;SDS011;5712;48.858;9.206;2024-01-06T09:18:44;2.90;;;1.90;;
11313;SDS011;5712;48.858;9.206;2024-01-06T09:21:10;2.87;;;1.80;;
11313;SDS011;5712;48.858;9.206;2024-01-06T09:23:37;2.33;;;1.87;;
11313;SDS011;5712;48.858;9.206;2024-01-06T09:26:03;3.27;;;1.60;;
11313;SDS011;5712;48.858;9.206;2024-01-06T09:28:30;1.50;;;1.40;;
11313;SDS011;5712;48.858;9.206;2024-01-06T09:30:58;1.67;;;1.33;;
11313;SDS011;5712;48.858;9.206;2024-01-06T09:33:24;2.53;;;1.70;;
11313;SDS011;5712;48.858;9.206;2024-01-06T09:35:51;2.00;;;1.80;;
11313;SDS011;5712;48.858;9.206;2024-01-06T09:38:17;3.13;;;1.87;;
11313;SDS011;5712;48.858;9.206;2024-01-06T09:40:44;1.77;;;1.63;;
11313;SDS011;5712;48.858;9.206;2024-01-06T09:43:11;2.53;;;2.00;;
11313;SDS011;5712;48.858;9.206;2024-01-06T09:45:38;2.83;;;1.67;;
11313;SDS011;5712;48.858;9.206;2024-01-06T09:48:09;2.53;;;1.60;;
11313;SDS011;5712;48.858;9.206;2024-01-06T09:50:37;3.00;;;1.80;;
11313;SDS011;5712;48.858;9.206;2024-01-06T09:53:06;1.80;;;1.60;;
11313;SDS011;5712;48.858;9.206;2024-01-06T09:55:36;2.13;;;1.93;;
11313;SDS011;5712;48.858;9.206;2024-01-06T09:58:03;2.27;;;1.97;;
11313;SDS011;5712;48.858;9.206;2024-01-06T10:00:30;3.17;;;2.07;;
11313;SDS011;5712;48.858;9.206;2024-01-06T10:02:56;2.80;;;2.30;;
11313;SDS011;5712;48.858;9.206;2024-01-06T10:05:24;2.43;;;2.00;;
11313;SDS011;5712;48.858;9.206;2024-01-06T10:07:51;2.77;;;2.33;;
11313;SDS011;5712;48.858;9.206;2024-01-06T10:10:18;2.03;;;1.80;;
11313;SDS011;5712;48.858;9.206;2024-01-06T10:12:45;4.47;;;2.70;;
11313;SDS011;5712;48.858;9.206;2024-01-06T10:15:11;2.37;;;2.17;;
11313;SDS011;5712;48.858;9.206;2024-01-06T10:17:38;2.90;;;1.87;;
11313;SDS011;5712;48.858;9.206;2024-01-06T10:20:06;2.77;;;2.13;;
11313;SDS011;5712;48.858;9.206;2024-01-06T10:22:36;3.73;;;2.70;;
11313;SDS011;5712;48.858;9.206;2024-01-06T10:25:04;3.00;;;2.40;;
11313;SDS011;5712;48.858;9.206;2024-01-06T10:27:33;2.50;;;2.30;;
11313;SDS011;5712;48.858;9.206;2024-01-06T10:30:00;2.53;;;2.27;;
11313;SDS011;5712;48.858;9.206;2024-01-06T10:32:26;3.90;;;2.20;;
11313;SDS011;5712;48.858;9.206;2024-01-06T10:34:55;2.50;;;2.10;;
11313;SDS011;5712;48.858;9.206;2024-01-06T10:37:22;3.03;;;2.10;;
11313;SDS011;5712;48.858;9.206;2024-01-06T10:39:53;2.70;;;2.47;;
11313;SDS011;5712;48.858;9.206;2024-01-06T10:42:32;2.30;;;2.10;;
11313;SDS011;5712;48.858;9.206;2024-01-06T10:44:59;3.97;;;2.37;;
11313;SDS011;5712;48.858;9.206;2024-01-06T10:47:26;2.20;;;1.97;;
11313;SDS011;5712;48.858;9.206;2024-01-06T10:49:55;2.83;;;2.30;;
11313;SDS011;5712;48.858;9.206;2024-01-06T10:52:24;4.00;;;2.60;;
11313;SDS011;5712;48.858;9.206;2024-01-06T10:54:54;3.50;;;2.60;;
11313;SDS011;5712;48.858;9.206;2024-01-06T10:57:22;3.50;;;2.23;;
11313;SDS011;5712;48.858;9.206;2024-01-06T10:59:50;3.10;;;2.30;;
11313;SDS011;5712;48.858;9.206;2024-01-06T11:02:18;3.97;;;2.30;;
11313;SDS011;5712;48.858;9.206;2024-01-06T11:04:45;3.77;;;2.87;;
11313;SDS011;5712;48.858;9.206;2024-01-06T11:07:13;5.37;;;3.00;;
11313;SDS011;5712;48.858;9.206;2024-01-06T11:09:42;3.77;;;3.07;;
11313;SDS011;5712;48.858;9.206;2024-01-06T11:12:14;3.73;;;3.07;;
11313;SDS011;5712;48.858;9.206;2024-01-06T11:14:41;6.33;;;3.07;;
11313;SDS011;5712;48.858;9.206;2024-01-06T11:17:08;3.13;;;2.80;;
11313;SDS011;5712;48.858;9.206;2024-01-06T11:19:42;3.20;;;2.80;;
11313;SDS011;5712;48.858;9.206;2024-01-06T11:22:25;3.57;;;2.87;;
11313;SDS011;5712;48.858;9.206;2024-01-06T11:24:54;4.47;;;3.23;;
11313;SDS011;5712;48.858;9.206;2024-01-06T11:27:23;4.17;;;3.30;;
11313;SDS011;5712;48.858;9.206;2024-01-06T11:29:53;5.30;;;3.70;;
11313;SDS011;5712;48.858;9.206;2024-01-06T11:32:20;4.00;;;2.90;;
11313;SDS011;5712;48.858;9.206;2024-01-06T11:34:52;4.67;;;3.40;;
11313;SDS011;5712;48.858;9.206;2024-01-06T11:37:23;4.73;;;3.23;;
11313;SDS011;5712;48.858;9.206;2024-01-06T11:39:50;5.40;;;3.17;;
11313;SDS011;5712;48.858;9.206;2024-01-06T11:42:18;5.07;;;3.70;;
11313;SDS011;5712;48.858;9.206;2024-01-06T11:44:49;4.63;;;3.40;;
11313;SDS011;5712;48.858;9.206;2024-01-06T11:47:16;5.83;;;3.53;;
11313;SDS011;5712;48.858;9.206;2024-01-06T11:49:48;5.40;;;3.87;;
11313;SDS011;5712;48.858;9.206;2024-01-06T11:52:21;5.73;;;4.20;;
11313;SDS011;5712;48.858;9.206;2024-01-06T11:54:50;4.47;;;3.57;;
11313;SDS011;5712;48.858;9.206;2024-01-06T11:57:18;4.13;;;3.07;;
11313;SDS011;5712;48.858;9.206;2024-01-06T11:59:46;4.23;;;3.20;;
11313;SDS011;5712;48.858;9.206;2024-01-06T12:02:13;6.03;;;3.93;;
11313;SDS011;5712;48.858;9.206;2024-01-06T12:04:40;4.60;;;3.80;;
11313;SDS011;5712;48.858;9.206;2024-01-06T12:07:07;5.67;;;3.50;;
11313;SDS011;5712;48.858;9.206;2024-01-06T12:09:33;4.37;;;3.70;;
11313;SDS011;5712;48.858;9.206;2024-01-06T12:12:01;4.27;;;3.37;;
11313;SDS011;5712;48.858;9.206;2024-01-06T12:14:28;5.03;;;3.60;;
11313;SDS011;5712;48.858;9.206;2024-01-06T12:16:56;5.33;;;3.80;;
11313;SDS011;5712;48.858;9.206;2024-01-06T12:19:27;5.50;;;4.20;;
11313;SDS011;5712;48.858;9.206;2024-01-06T12:21:55;5.20;;;3.63;;
11313;SDS011;5712;48.858;9.206;2024-01-06T12:24:22;7.53;;;4.00;;
11313;SDS011;5712;48.858;9.206;2024-01-06T12:26:48;5.83;;;4.30;;
11313;SDS011;5712;48.858;9.206;2024-01-06T12:29:16;5.10;;;3.73;;
11313;SDS011;5712;48.858;9.206;2024-01-06T12:31:43;4.77;;;3.77;;
11313;SDS011;5712;48.858;9.206;2024-01-06T12:34:12;4.83;;;3.23;;
11313;SDS011;5712;48.858;9.206;2024-01-06T12:36:39;4.63;;;3.40;;
11313;SDS011;5712;48.858;9.206;2024-01-06T12:39:10;4.33;;;3.63;;
11313;SDS011;5712;48.858;9.206;2024-01-06T12:41:38;5.27;;;3.97;;
11313;SDS011;5712;48.858;9.206;2024-01-06T12:44:05;6.47;;;4.17;;
11313;SDS011;5712;48.858;9.206;2024-01-06T12:46:33;6.00;;;3.90;;
11313;SDS011;5712;48.858;9.206;2024-01-06T12:48:59;6.40;;;3.83;;
11313;SDS011;5712;48.858;9.206;2024-01-06T12:51:27;5.27;;;3.80;;
11313;SDS011;5712;48.858;9.206;2024-01-06T12:53:54;5.50;;;4.00;;
11313;SDS011;5712;48.858;9.206;2024-01-06T12:56:21;4.50;;;3.30;;
11313;SDS011;5712;48.858;9.206;2024-01-06T12:58:48;5.07;;;4.13;;
11313;SDS011;5712;48.858;9.206;2024-01-06T13:01:14;6.53;;;4.40;;
11313;SDS011;5712;48.858;9.206;2024-01-06T13:03:41;7.00;;;4.07;;
11313;SDS011;5712;48.858;9.206;2024-01-06T13:06:08;5.90;;;4.37;;
11313;SDS011;5712;48.858;9.206;2024-01-06T13:08:37;6.47;;;4.90;;
11313;SDS011;5712;48.858;9.206;2024-01-06T13:11:03;5.43;;;4.10;;
11313;SDS011;5712;48.858;9.206;2024-01-06T13:13:30;6.37;;;4.50;;
11313;SDS011;5712;48.858;9.206;2024-01-06T13:15:57;5.17;;;4.10;;
11313;SDS011;5712;48.858;9.206;2024-01-06T13:18:24;4.80;;;4.30;;
11313;SDS011;5712;48.858;9.206;2024-01-06T13:20:50;6.93;;;4.57;;
11313;SDS011;5712;48.858;9.206;2024-01-06T13:23:17;5.63;;;4.43;;
11313;SDS011;5712;48.858;9.206;2024-01-06T13:25:45;6.93;;;4.47;;
11313;SDS011;5712;48.858;9.206;2024-01-06T13:28:11;6.47;;;4.73;;
11313;SDS011;5712;48.858;9.206;2024-01-06T13:30:38;8.83;;;5.03;;
11313;SDS011;5712;48.858;9.206;2024-01-06T13:33:06;6.53;;;5.07;;
11313;SDS011;5712;48.858;9.206;2024-01-06T13:35:34;7.07;;;4.87;;
11313;SDS011;5712;48.858;9.206;2024-01-06T13:38:01;7.37;;;4.93;;
11313;SDS011;5712;48.858;9.206;2024-01-06T13:40:29;6.37;;;4.97;;
11313;SDS011;5712;48.858;9.206;2024-01-06T13:42:58;6.57;;;4.90;;
11313;SDS011;5712;48.858;9.206;2024-01-06T13:45:24;7.00;;;4.60;;
11313;SDS011;5712;48.858;9.206;2024-01-06T13:47:51;6.23;;;4.43;;
11313;SDS011;5712;48.858;9.206;2024-01-06T13:50:18;8.97;;;5.57;;
11313;SDS011;5712;48.858;9.206;2024-01-06T13:52:45;6.33;;;5.00;;
11313;SDS011;5712;48.858;9.206;2024-01-06T13:55:12;6.70;;;4.23;;
11313;SDS011;5712;48.858;9.206;2024-01-06T13:57:38;5.83;;;4.63;;
11313;SDS011;5712;48.858;9.206;2024-01-06T14:00:08;5.57;;;4.57;;
11313;SDS011;5712;48.858;9.206;2024-01-06T14:02:35;6.27;;;4.50;;
11313;SDS011;5712;48.858;9.206;2024-01-06T14:05:03;6.83;;;4.73;;
11313;SDS011;5712;48.858;9.206;2024-01-06T14:07:30;6.57;;;4.97;;
11313;SDS011;5712;48.858;9.206;2024-01-06T14:09:56;6.80;;;4.53;;
11313;SDS011;5712;48.858;9.206;2024-01-06T14:12:23;5.20;;;4.47;;
11313;SDS011;5712;48.858;9.206;2024-01-06T14:14:49;7.37;;;5.33;;
11313;SDS011;5712;48.858;9.206;2024-01-06T14:17:17;8.67;;;5.63;;
11313;SDS011;5712;48.858;9.206;2024-01-06T14:19:43;8.73;;;6.00;;
11313;SDS011;5712;48.858;9.206;2024-01-06T14:22:10;7.83;;;5.73;;
11313;SDS011;5712;48.858;9.206;2024-01-06T14:24:36;6.73;;;4.87;;
11313;SDS011;5712;48.858;9.206;2024-01-06T14:27:03;8.47;;;5.47;;
11313;SDS011;5712;48.858;9.206;2024-01-06T14:29:30;7.30;;;5.07;;
11313;SDS011;5712;48.858;9.206;2024-01-06T14:31:56;8.23;;;5.30;;
11313;SDS011;5712;48.858;9.206;2024-01-06T14:34:24;7.47;;;5.33;;
11313;SDS011;5712;48.858;9.206;2024-01-06T14:36:50;7.33;;;5.67;;
11313;SDS011;5712;48.858;9.206;2024-01-06T14:39:17;9.67;;;5.43;;
11313;SDS011;5712;48.858;9.206;2024-01-06T14:41:46;7.80;;;5.60;;
11313;SDS011;5712;48.858;9.206;2024-01-06T14:44:13;8.10;;;5.70;;
11313;SDS011;5712;48.858;9.206;2024-01-06T14:46:39;7.30;;;4.90;;
11313;SDS011;5712;48.858;9.206;2024-01-06T14:49:06;8.00;;;5.27;;
11313;SDS011;5712;48.858;9.206;2024-01-06T14:51:34;8.10;;;5.53;;
11313;SDS011;5712;48.858;9.206;2024-01-06T14:54:00;6.83;;;5.47;;
11313;SDS011;5712;48.858;9.206;2024-01-06T14:56:27;8.00;;;6.10;;
11313;SDS011;5712;48.858;9.206;2024-01-06T14:58:55;7.80;;;5.37;;